sensor_id;sensor_type;location;lat;lon;timestamp;pressure;altitude;pressure_sealevel;temperature;humidity
71857;BME280;63344;46.980;28.882;2024-03-08T00:00:12;101466.72;;;2.89;60.14
71857;BME280;63344;46.980;28.882;2024-03-08T00:03:02;101457.09;;;2.88;60.59
71857;BME280;63344;46.980;28.882;2024-03-08T00:05:30;101459.75;;;2.92;60.23
71857;BME280;63344;46.980;28.882;2024-03-08T00:07:57;101418.53;;;2.70;60.26
71857;BME280;63344;46.980;28.882;2024-03-08T00:10:24;101435.16;;;2.79;60.08
71857;BME280;63344;46.980;28.882;2024-03-08T00:12:54;101418.53;;;2.70;60.63
71857;BME280;63344;46.980;28.882;2024-03-08T00:15:22;101411.50;;;2.66;60.35
71857;BME280;63344;46.980;28.882;2024-03-08T00:17:50;101427.28;;;2.76;60.45
71857;BME280;63344;46.980;28.882;2024-03-08T00:20:17;101407.94;;;2.59;60.52
71857;BME280;63344;46.980;28.882;2024-03-08T00:22:46;101429.06;;;2.76;60.28
71857;BME280;63344;46.980;28.882;2024-03-08T00:25:14;101418.50;;;2.68;60.13
71857;BME280;63344;46.980;28.882;2024-03-08T00:27:45;101436.94;;;2.81;60.34
71857;BME280;63344;46.980;28.882;2024-03-08T00:30:12;101442.19;;;2.85;60.58
71857;BME280;63344;46.980;28.882;2024-03-08T00:32:42;101422.94;;;2.80;60.21
71857;BME280;63344;46.980;28.882;2024-03-08T00:35:10;101400.16;;;2.73;60.36
71857;BME280;63344;46.980;28.882;2024-03-08T00:37:38;101429.94;;;2.83;60.27
71857;BME280;63344;46.980;28.882;2024-03-08T00:40:06;101409.78;;;2.72;60.16
71857;BME280;63344;46.980;28.882;2024-03-08T00:42:36;101436.97;;;2.85;60.42
71857;BME280;63344;46.980;28.882;2024-03-08T00:45:05;101424.69;;;2.78;60.40
71857;BME280;63344;46.980;28.882;2024-03-08T00:47:33;101411.50;;;2.69;60.46
71857;BME280;63344;46.980;28.882;2024-03-08T00:50:00;101402.72;;;2.65;60.13
71857;BME280;63344;46.980;28.882;2024-03-08T00:52:31;101412.44;;;2.74;60.29
71857;BME280;63344;46.980;28.882;2024-03-08T00:54:58;101430.00;;;2.86;60.71
71857;BME280;63344;46.980;28.882;2024-03-08T00:57:26;101392.25;;;2.65;60.28
71857;BME280;63344;46.980;28.882;2024-03-08T00:59:53;101404.53;;;2.72;60.67
71857;BME280;63344;46.980;28.882;2024-03-08T01:02:20;101400.13;;;2.65;60.75
71857;BME280;63344;46.980;28.882;2024-03-08T01:04:48;101386.94;;;2.54;60.71
71857;BME280;63344;46.980;28.882;2024-03-08T01:07:16;101386.06;;;2.55;60.81
71857;BME280;63344;46.980;28.882;2024-03-08T01:09:43;101374.66;;;2.49;60.75
71857;BME280;63344;46.980;28.882;2024-03-08T01:12:10;101429.06;;;2.76;61.17
71857;BME280;63344;46.980;28.882;2024-03-08T01:14:38;101381.66;;;2.48;61.23
71857;BME280;63344;46.980;28.882;2024-03-08T01:17:05;101429.91;;;2.75;60.90
71857;BME280;63344;46.980;28.882;2024-03-08T01:19:32;101431.66;;;2.74;61.12
71857;BME280;63344;46.980;28.882;2024-03-08T01:22:00;101422.00;;;2.73;60.65
71857;BME280;63344;46.980;28.882;2024-03-08T01:24:28;101379.03;;;2.47;60.89
71857;BME280;63344;46.980;28.882;2024-03-08T01:26:55;101419.38;;;2.73;60.66
71857;BME280;63344;46.980;28.882;2024-03-08T01:29:22;101383.38;;;2.45;60.76
71857;BME280;63344;46.980;28.882;2024-03-08T01:31:50;101422.88;;;2.68;60.78
71857;BME280;63344;46.980;28.882;2024-03-08T01:34:19;101417.59;;;2.63;61.04
71857;BME280;63344;46.980;28.882;2024-03-08T01:36:48;101421.06;;;2.59;61.12
71857;BME280;63344;46.980;28.882;2024-03-08T01:39:15;101397.34;;;2.44;61.10
71857;BME280;63344;46.980;28.882;2024-03-08T01:41:44;101419.31;;;2.58;61.16
71857;BME280;63344;46.980;28.882;2024-03-08T01:44:11;101403.47;;;2.44;61.45
71857;BME280;63344;46.980;28.882;2024-03-08T01:46:47;101422.78;;;2.57;61.43
71857;BME280;63344;46.980;28.882;2024-03-08T01:49:15;101379.78;;;2.30;61.34
71857;BME280;63344;46.980;28.882;2024-03-08T01:51:45;101363.13;;;2.21;61.03
71857;BME280;63344;46.980;28.882;2024-03-08T01:54:14;101421.00;;;2.51;61.00
71857;BME280;63344;46.980;28.882;2024-03-08T01:56:43;101379.78;;;2.29;61.50
71857;BME280;63344;46.980;28.882;2024-03-08T01:59:10;101433.25;;;2.52;61.54
71857;BME280;63344;46.980;28.882;2024-03-08T02:01:38;101363.97;;;2.16;61.28
71857;BME280;63344;46.980;28.882;2024-03-08T02:04:06;101426.25;;;2.50;61.69
71857;BME280;63344;46.980;28.882;2024-03-08T02:06:34;101397.25;;;2.31;61.47
71857;BME280;63344;46.980;28.882;2024-03-08T02:09:01;101406.91;;;2.34;61.76
71857;BME280;63344;46.980;28.882;2024-03-08T02:11:34;101427.97;;;2.46;61.78
71857;BME280;63344;46.980;28.882;2024-03-08T02:14:03;101375.34;;;2.23;61.61
71857;BME280;63344;46.980;28.882;2024-03-08T02:16:33;101392.91;;;2.30;61.38
71857;BME280;63344;46.980;28.882;2024-03-08T02:19:00;101377.06;;;2.16;61.39
71857;BME280;63344;46.980;28.882;2024-03-08T02:21:28;101420.09;;;2.45;61.80
71857;BME280;63344;46.980;28.882;2024-03-08T02:23:56;101402.53;;;2.37;61.82
71857;BME280;63344;46.980;28.882;2024-03-08T02:26:24;101420.13;;;2.48;61.29
71857;BME280;63344;46.980;28.882;2024-03-08T02:28:51;101386.72;;;2.25;61.06
71857;BME280;63344;46.980;28.882;2024-03-08T02:31:19;101409.56;;;2.38;60.88
71857;BME280;63344;46.980;28.882;2024-03-08T02:33:46;101395.44;;;2.21;61.25
71857;BME280;63344;46.980;28.882;2024-03-08T02:36:14;101362.13;;;2.05;61.24
71857;BME280;63344;46.980;28.882;2024-03-08T02:38:43;101391.94;;;2.21;61.05
71857;BME280;63344;46.980;28.882;2024-03-08T02:41:11;101393.69;;;2.23;61.04
71857;BME280;63344;46.980;28.882;2024-03-08T02:43:39;101400.69;;;2.21;61.03
71857;BME280;63344;46.980;28.882;2024-03-08T02:46:06;101388.41;;;2.14;61.16
71857;BME280;63344;46.980;28.882;2024-03-08T02:48:33;101402.44;;;2.22;61.39
71857;BME280;63344;46.980;28.882;2024-03-08T02:51:04;101391.94;;;2.21;61.15
71857;BME280;63344;46.980;28.882;2024-03-08T02:53:32;101406.88;;;2.31;61.09
71857;BME280;63344;46.980;28.882;2024-03-08T02:55:59;101421.72;;;2.30;61.38
71857;BME280;63344;46.980;28.882;2024-03-08T02:58:26;101409.44;;;2.25;60.88
71857;BME280;63344;46.980;28.882;2024-03-08T03:00:55;101365.56;;;1.96;61.30
71857;BME280;63344;46.980;28.882;2024-03-08T03:03:24;101377.81;;;2.03;61.37
71857;BME280;63344;46.980;28.882;2024-03-08T03:05:53;101390.06;;;2.07;61.36
71857;BME280;63344;46.980;28.882;2024-03-08T03:08:22;101388.31;;;2.05;61.14
71857;BME280;63344;46.980;28.882;2024-03-08T03:10:50;101372.50;;;1.92;61.71
71857;BME280;63344;46.980;28.882;2024-03-08T03:13:18;101368.09;;;1.91;61.57
71857;BME280;63344;46.980;28.882;2024-03-08T03:15:46;101349.75;;;1.88;61.64
71857;BME280;63344;46.980;28.882;2024-03-08T03:18:14;101362.81;;;1.85;61.77
71857;BME280;63344;46.980;28.882;2024-03-08T03:20:43;101361.94;;;1.83;61.73
71857;BME280;63344;46.980;28.882;2024-03-08T03:23:13;101407.59;;;2.10;61.94
71857;BME280;63344;46.980;28.882;2024-03-08T03:25:48;101403.25;;;2.15;61.77
71857;BME280;63344;46.980;28.882;2024-03-08T03:28:15;101412.81;;;2.11;62.07
71857;BME280;63344;46.980;28.882;2024-03-08T03:30:45;101352.28;;;1.77;61.87
71857;BME280;63344;46.980;28.882;2024-03-08T03:33:13;101392.63;;;1.99;61.97
71857;BME280;63344;46.980;28.882;2024-03-08T03:35:43;101337.38;;;1.69;61.77
71857;BME280;63344;46.980;28.882;2024-03-08T03:38:11;101377.69;;;1.89;62.02
71857;BME280;63344;46.980;28.882;2024-03-08T03:40:39;101400.50;;;2.01;62.24
71857;BME280;63344;46.980;28.882;2024-03-08T03:43:07;101396.13;;;1.98;61.97
71857;BME280;63344;46.980;28.882;2024-03-08T03:45:40;101406.63;;;2.03;61.75
71857;BME280;63344;46.980;28.882;2024-03-08T03:48:09;101400.47;;;1.99;62.13
71857;BME280;63344;46.980;28.882;2024-03-08T03:50:39;101397.00;;;1.99;62.13
71857;BME280;63344;46.980;28.882;2024-03-08T03:53:07;101405.66;;;1.93;62.12
71857;BME280;63344;46.980;28.882;2024-03-08T03:55:37;101410.97;;;1.98;62.34
71857;BME280;63344;46.980;28.882;2024-03-08T03:58:07;101403.09;;;1.96;62.19
71857;BME280;63344;46.980;28.882;2024-03-08T04:00:35;101388.13;;;1.83;61.99
71857;BME280;63344;46.980;28.882;2024-03-08T04:03:04;101392.50;;;1.86;62.37
71857;BME280;63344;46.980;28.882;2024-03-08T04:05:32;101402.16;;;1.88;62.55
71857;BME280;63344;46.980;28.882;2024-03-08T04:07:59;101410.09;;;1.96;62.13
71857;BME280;63344;46.980;28.882;2024-03-08T04:10:26;101402.97;;;1.84;61.75
71857;BME280;63344;46.980;28.882;2024-03-08T04:12:53;101370.56;;;1.70;62.46
71857;BME280;63344;46.980;28.882;2024-03-08T04:15:21;101413.53;;;1.92;62.36
71857;BME280;63344;46.980;28.882;2024-03-08T04:17:48;101385.41;;;1.75;62.43
71857;BME280;63344;46.980;28.882;2024-03-08T04:20:15;101393.34;;;1.82;62.67
71857;BME280;63344;46.980;28.882;2024-03-08T04:22:44;101397.78;;;1.89;62.76
71857;BME280;63344;46.980;28.882;2024-03-08T04:25:14;101393.41;;;1.86;62.57
71857;BME280;63344;46.980;28.882;2024-03-08T04:27:42;101406.56;;;1.94;62.47
71857;BME280;63344;46.980;28.882;2024-03-08T04:30:09;101393.41;;;1.89;63.01
71857;BME280;63344;46.980;28.882;2024-03-08T04:32:37;101406.56;;;1.94;62.86
71857;BME280;63344;46.980;28.882;2024-03-08T04:35:05;101408.34;;;1.98;63.00
71857;BME280;63344;46.980;28.882;2024-03-08T04:37:33;101400.44;;;1.93;63.07
71857;BME280;63344;46.980;28.882;2024-03-08T04:40:01;101389.88;;;1.86;62.94
71857;BME280;63344;46.980;28.882;2024-03-08T04:42:28;101375.84;;;1.76;63.27
71857;BME280;63344;46.980;28.882;2024-03-08T04:44:57;101364.34;;;1.62;62.76
71857;BME280;63344;46.980;28.882;2024-03-08T04:47:25;101419.59;;;1.88;63.41
71857;BME280;63344;46.980;28.882;2024-03-08T04:49:53;101414.34;;;1.86;63.21
71857;BME280;63344;46.980;28.882;2024-03-08T04:52:22;101434.47;;;1.90;63.71
71857;BME280;63344;46.980;28.882;2024-03-08T04:54:49;101383.53;;;1.61;63.93
71857;BME280;63344;46.980;28.882;2024-03-08T04:57:17;101430.97;;;1.91;63.38
71857;BME280;63344;46.980;28.882;2024-03-08T04:59:48;101435.31;;;1.89;63.60
71857;BME280;63344;46.980;28.882;2024-03-08T05:02:16;101434.50;;;1.92;64.01
71857;BME280;63344;46.980;28.882;2024-03-08T05:05:00;101403.75;;;1.74;63.84
71857;BME280;63344;46.980;28.882;2024-03-08T05:07:27;101430.09;;;1.91;63.22
71857;BME280;63344;46.980;28.882;2024-03-08T05:10:09;101437.94;;;1.89;63.98
71857;BME280;63344;46.980;28.882;2024-03-08T05:12:37;101413.41;;;1.78;63.76
71857;BME280;63344;46.980;28.882;2024-03-08T05:15:06;101413.34;;;1.75;63.41
71857;BME280;63344;46.980;28.882;2024-03-08T05:17:40;101426.53;;;1.86;63.54
71857;BME280;63344;46.980;28.882;2024-03-08T05:20:08;101451.16;;;2.03;63.61
71857;BME280;63344;46.980;28.882;2024-03-08T05:22:39;101425.69;;;1.87;63.46
71857;BME280;63344;46.980;28.882;2024-03-08T05:25:09;101458.19;;;2.07;62.86
71857;BME280;63344;46.980;28.882;2024-03-08T05:27:37;101417.75;;;1.79;62.80
71857;BME280;63344;46.980;28.882;2024-03-08T05:30:07;101411.63;;;1.77;63.10
71857;BME280;63344;46.980;28.882;2024-03-08T05:32:35;101441.47;;;1.90;63.14
71857;BME280;63344;46.980;28.882;2024-03-08T05:35:03;101430.09;;;1.88;63.53
71857;BME280;63344;46.980;28.882;2024-03-08T05:37:34;101459.09;;;2.09;63.18
71857;BME280;63344;46.980;28.882;2024-03-08T05:40:26;101449.38;;;1.99;63.36
71857;BME280;63344;46.980;28.882;2024-03-08T05:42:54;101443.22;;;1.95;63.39
71857;BME280;63344;46.980;28.882;2024-03-08T05:45:22;101404.66;;;1.76;63.07
71857;BME280;63344;46.980;28.882;2024-03-08T05:47:54;101419.53;;;1.83;63.09
71857;BME280;63344;46.980;28.882;2024-03-08T05:50:21;101437.16;;;1.96;62.86
71857;BME280;63344;46.980;28.882;2024-03-08T05:52:50;101451.25;;;2.11;62.89
71857;BME280;63344;46.980;28.882;2024-03-08T05:55:20;101428.34;;;1.91;62.31
71857;BME280;63344;46.980;28.882;2024-03-08T05:58:03;101459.06;;;2.05;62.31
71857;BME280;63344;46.980;28.882;2024-03-08T06:00:30;101420.44;;;1.85;62.37
71857;BME280;63344;46.980;28.882;2024-03-08T06:02:58;101438.88;;;1.94;62.37
71857;BME280;63344;46.980;28.882;2024-03-08T06:05:26;101458.16;;;2.06;62.23
71857;BME280;63344;46.980;28.882;2024-03-08T06:07:53;101449.41;;;2.04;62.16
71857;BME280;63344;46.980;28.882;2024-03-08T06:10:31;101466.16;;;2.19;62.02
71857;BME280;63344;46.980;28.882;2024-03-08T06:13:10;101467.03;;;2.18;62.32
71857;BME280;63344;46.980;28.882;2024-03-08T06:15:43;101477.56;;;2.23;62.08
71857;BME280;63344;46.980;28.882;2024-03-08T06:18:10;101446.06;;;2.17;62.22
71857;BME280;63344;46.980;28.882;2024-03-08T06:20:38;101438.22;;;2.18;61.95
71857;BME280;63344;46.980;28.882;2024-03-08T06:23:21;101469.84;;;2.42;61.94
71857;BME280;63344;46.980;28.882;2024-03-08T06:25:53;101464.66;;;2.46;61.98
71857;BME280;63344;46.980;28.882;2024-03-08T06:28:20;101440.97;;;2.34;61.60
71857;BME280;63344;46.980;28.882;2024-03-08T06:30:47;101440.09;;;2.32;61.35
71857;BME280;63344;46.980;28.882;2024-03-08T06:33:15;101459.38;;;2.40;61.63
71857;BME280;63344;46.980;28.882;2024-03-08T06:35:45;101451.53;;;2.43;61.83
71857;BME280;63344;46.980;28.882;2024-03-08T06:38:13;101416.50;;;2.33;61.85
71857;BME280;63344;46.980;28.882;2024-03-08T06:40:43;101457.88;;;2.74;61.15
71857;BME280;63344;46.980;28.882;2024-03-08T06:43:11;101443.03;;;2.79;60.58
71857;BME280;63344;46.980;28.882;2024-03-08T06:45:50;101426.41;;;2.74;60.15
71857;BME280;63344;46.980;28.882;2024-03-08T06:48:46;101466.81;;;3.07;60.00
71857;BME280;63344;46.980;28.882;2024-03-08T06:58:21;101452.81;;;3.07;58.32
71857;BME280;63344;46.980;28.882;2024-03-08T07:10:52;101459.19;;;3.56;57.00
71857;BME280;63344;46.980;28.882;2024-03-08T07:14:54;101417.13;;;3.53;56.60
71857;BME280;63344;46.980;28.882;2024-03-08T07:48:17;101417.19;;;3.73;52.21
71857;BME280;63344;46.980;28.882;2024-03-08T07:50:45;101473.31;;;4.06;52.64
71857;BME280;63344;46.980;28.882;2024-03-08T07:53:13;101437.41;;;4.27;53.02
71857;BME280;63344;46.980;28.882;2024-03-08T07:55:51;101460.19;;;4.57;51.01
71857;BME280;63344;46.980;28.882;2024-03-08T07:58:19;101421.66;;;4.16;50.21
71857;BME280;63344;46.980;28.882;2024-03-08T08:00:46;101429.50;;;4.01;51.10
71857;BME280;63344;46.980;28.882;2024-03-08T08:03:13;101466.34;;;4.22;51.48
71857;BME280;63344;46.980;28.882;2024-03-08T08:05:43;101463.72;;;4.39;51.11
71857;BME280;63344;46.980;28.882;2024-03-08T08:08:10;101455.81;;;4.41;51.35
71857;BME280;63344;46.980;28.882;2024-03-08T08:11:07;101434.75;;;4.84;50.93
71857;BME280;63344;46.980;28.882;2024-03-08T08:14:00;101439.91;;;5.24;50.49
71857;BME280;63344;46.980;28.882;2024-03-08T08:16:32;101434.56;;;5.41;49.20
71857;BME280;63344;46.980;28.882;2024-03-08T08:18:59;101447.69;;;5.51;48.19
71857;BME280;63344;46.980;28.882;2024-03-08T08:21:27;101424.97;;;5.23;48.30
71857;BME280;63344;46.980;28.882;2024-03-08T08:23:57;101427.59;;;5.27;49.00
71857;BME280;63344;46.980;28.882;2024-03-08T08:26:25;101416.22;;;5.13;49.02
71857;BME280;63344;46.980;28.882;2024-03-08T08:29:03;101417.13;;;5.13;48.54
71857;BME280;63344;46.980;28.882;2024-03-08T08:31:33;101438.03;;;5.50;48.09
71857;BME280;63344;46.980;28.882;2024-03-08T08:34:00;101420.50;;;5.37;48.11
71857;BME280;63344;46.980;28.882;2024-03-08T08:36:28;101400.28;;;5.51;48.02
71857;BME280;63344;46.980;28.882;2024-03-08T08:38:56;101417.75;;;5.66;47.35
71857;BME280;63344;46.980;28.882;2024-03-08T08:41:25;101394.19;;;5.37;47.53
71857;BME280;63344;46.980;28.882;2024-03-08T08:43:53;101446.69;;;5.71;47.39
71857;BME280;63344;46.980;28.882;2024-03-08T08:46:36;101437.78;;;5.96;47.41
71857;BME280;63344;46.980;28.882;2024-03-08T08:49:08;101433.03;;;6.46;47.46
71857;BME280;63344;46.980;28.882;2024-03-08T08:51:41;101400.22;;;6.73;45.36
71857;BME280;63344;46.980;28.882;2024-03-08T08:54:10;101410.06;;;6.53;45.51
71857;BME280;63344;46.980;28.882;2024-03-08T08:56:55;101400.50;;;6.46;45.53
71857;BME280;63344;46.980;28.882;2024-03-08T08:59:25;101380.25;;;6.45;45.20
71857;BME280;63344;46.980;28.882;2024-03-08T09:01:53;101356.94;;;5.92;45.74
71857;BME280;63344;46.980;28.882;2024-03-08T09:04:21;101396.56;;;5.80;46.58
71857;BME280;63344;46.980;28.882;2024-03-08T09:06:53;101393.25;;;5.50;47.34
71857;BME280;63344;46.980;28.882;2024-03-08T09:09:24;101416.94;;;5.52;48.07
71857;BME280;63344;46.980;28.882;2024-03-08T09:14:40;101416.00;;;5.65;47.52
71857;BME280;63344;46.980;28.882;2024-03-08T09:17:09;101417.66;;;5.78;47.93
71857;BME280;63344;46.980;28.882;2024-03-08T09:19:39;101416.91;;;5.56;48.05
71857;BME280;63344;46.980;28.882;2024-03-08T09:22:07;101409.84;;;5.68;47.83
71857;BME280;63344;46.980;28.882;2024-03-08T09:24:34;101376.28;;;5.97;48.46
71857;BME280;63344;46.980;28.882;2024-03-08T09:27:07;101376.53;;;6.67;47.18
71857;BME280;63344;46.980;28.882;2024-03-08T09:29:38;101377.97;;;6.93;45.19
71857;BME280;63344;46.980;28.882;2024-03-08T09:32:07;101364.38;;;6.51;45.46
71857;BME280;63344;46.980;28.882;2024-03-08T09:34:38;101385.94;;;5.97;46.63
71857;BME280;63344;46.980;28.882;2024-03-08T09:37:05;101414.94;;;5.98;47.02
71857;BME280;63344;46.980;28.882;2024-03-08T09:39:33;101371.00;;;5.93;46.96
71857;BME280;63344;46.980;28.882;2024-03-08T09:42:01;101409.44;;;6.29;47.31
71857;BME280;63344;46.980;28.882;2024-03-08T09:44:29;101346.78;;;6.51;46.14
71857;BME280;63344;46.980;28.882;2024-03-08T09:47:00;101367.16;;;7.17;45.45
71857;BME280;63344;46.980;28.882;2024-03-08T09:49:29;101362.97;;;6.98;44.43
71857;BME280;63344;46.980;28.882;2024-03-08T09:52:00;101362.13;;;6.93;44.68
71857;BME280;63344;46.980;28.882;2024-03-08T09:54:27;101358.47;;;7.05;44.49
71857;BME280;63344;46.980;28.882;2024-03-08T09:56:58;101404.13;;;7.19;44.94
71857;BME280;63344;46.980;28.882;2024-03-08T09:59:31;101369.13;;;7.00;44.54
71857;BME280;63344;46.980;28.882;2024-03-08T10:02:09;101337.09;;;6.52;45.29
71857;BME280;63344;46.980;28.882;2024-03-08T10:04:43;101410.00;;;6.65;46.55
71857;BME280;63344;46.980;28.882;2024-03-08T10:07:15;101368.91;;;6.36;46.21
71857;BME280;63344;46.980;28.882;2024-03-08T10:09:44;101391.41;;;6.73;46.25
71857;BME280;63344;46.980;28.882;2024-03-08T10:12:18;101383.94;;;7.10;45.28
71857;BME280;63344;46.980;28.882;2024-03-08T10:14:47;101381.31;;;7.10;44.50
71857;BME280;63344;46.980;28.882;2024-03-08T10:17:19;101366.41;;;7.06;45.24
71857;BME280;63344;46.980;28.882;2024-03-08T10:19:50;101349.78;;;7.63;44.55
71857;BME280;63344;46.980;28.882;2024-03-08T10:22:22;101381.84;;;8.52;42.84
71857;BME280;63344;46.980;28.882;2024-03-08T10:25:06;101371.94;;;8.65;42.51
71857;BME280;63344;46.980;28.882;2024-03-08T10:27:38;101357.25;;;8.93;41.85
71857;BME280;63344;46.980;28.882;2024-03-08T10:30:10;101360.75;;;8.94;41.07
71857;BME280;63344;46.980;28.882;2024-03-08T10:32:40;101346.66;;;7.94;42.00
71857;BME280;63344;46.980;28.882;2024-03-08T10:35:09;101322.41;;;7.66;42.83
71857;BME280;63344;46.980;28.882;2024-03-08T10:40:16;101360.09;;;7.80;43.40
71857;BME280;63344;46.980;28.882;2024-03-08T10:43:05;101365.75;;;8.63;43.25
71857;BME280;63344;46.980;28.882;2024-03-08T10:45:41;101297.97;;;8.99;41.58
71857;BME280;63344;46.980;28.882;2024-03-08T10:48:31;101360.13;;;9.25;40.44
71857;BME280;63344;46.980;28.882;2024-03-08T10:51:07;101328.03;;;8.53;41.04
71857;BME280;63344;46.980;28.882;2024-03-08T10:53:36;101355.50;;;7.93;42.28
71857;BME280;63344;46.980;28.882;2024-03-08T10:56:09;101300.00;;;7.31;43.76
71857;BME280;63344;46.980;28.882;2024-03-08T10:58:39;101324.31;;;7.57;43.95
71857;BME280;63344;46.980;28.882;2024-03-08T11:01:08;101354.09;;;7.69;43.65
71857;BME280;63344;46.980;28.882;2024-03-08T11:06:42;101318.59;;;7.25;44.06
71857;BME280;63344;46.980;28.882;2024-03-08T11:09:34;101334.22;;;7.43;43.88
71857;BME280;63344;46.980;28.882;2024-03-08T11:12:37;101329.66;;;8.09;43.49
71857;BME280;63344;46.980;28.882;2024-03-08T11:15:12;101296.91;;;8.16;42.21
71857;BME280;63344;46.980;28.882;2024-03-08T11:17:49;101327.53;;;8.77;41.41
71857;BME280;63344;46.980;28.882;2024-03-08T11:20:19;101293.94;;;8.81;41.01
71857;BME280;63344;46.980;28.882;2024-03-08T11:22:55;101296.59;;;8.80;41.53
71857;BME280;63344;46.980;28.882;2024-03-08T11:25:40;101319.88;;;9.06;40.69
71857;BME280;63344;46.980;28.882;2024-03-08T11:28:16;101290.63;;;8.68;40.53
71857;BME280;63344;46.980;28.882;2024-03-08T11:33:28;101267.41;;;9.23;39.75
71857;BME280;63344;46.980;28.882;2024-03-08T11:38:45;101294.69;;;8.40;40.35
71857;BME280;63344;46.980;28.882;2024-03-08T11:41:23;101279.78;;;7.30;42.25
71857;BME280;63344;46.980;28.882;2024-03-08T11:44:02;101281.66;;;6.53;44.00
71857;BME280;63344;46.980;28.882;2024-03-08T11:46:37;101285.69;;;6.05;45.59
71857;BME280;63344;46.980;28.882;2024-03-08T11:49:20;101285.03;;;5.75;45.97
71857;BME280;63344;46.980;28.882;2024-03-08T11:51:53;101278.97;;;5.65;46.28
71857;BME280;63344;46.980;28.882;2024-03-08T11:54:23;101290.22;;;5.86;46.63
71857;BME280;63344;46.980;28.882;2024-03-08T11:56:54;101280.47;;;5.94;46.38
71857;BME280;63344;46.980;28.882;2024-03-08T11:59:29;101285.78;;;5.91;46.35
71857;BME280;63344;46.980;28.882;2024-03-08T12:02:04;101297.97;;;6.07;46.49
71857;BME280;63344;46.980;28.882;2024-03-08T12:04:42;101275.13;;;6.08;46.32
71857;BME280;63344;46.980;28.882;2024-03-08T12:07:10;101288.19;;;6.17;46.15
71857;BME280;63344;46.980;28.882;2024-03-08T12:09:41;101273.50;;;5.90;46.34
71857;BME280;63344;46.980;28.882;2024-03-08T12:12:15;101281.34;;;5.93;46.08
71857;BME280;63344;46.980;28.882;2024-03-08T12:14:44;101270.84;;;5.88;46.36
71857;BME280;63344;46.980;28.882;2024-03-08T12:17:14;101275.91;;;6.14;45.85
71857;BME280;63344;46.980;28.882;2024-03-08T12:19:46;101284.69;;;6.18;46.06
71857;BME280;63344;46.980;28.882;2024-03-08T12:22:14;101282.53;;;6.52;45.84
71857;BME280;63344;46.980;28.882;2024-03-08T12:24:43;101295.63;;;6.63;45.35
71857;BME280;63344;46.980;28.882;2024-03-08T12:27:18;101286.81;;;6.63;45.04
71857;BME280;63344;46.980;28.882;2024-03-08T12:29:51;101275.56;;;6.48;45.68
71857;BME280;63344;46.980;28.882;2024-03-08T12:32:18;101279.13;;;6.46;45.68
71857;BME280;63344;46.980;28.882;2024-03-08T12:34:52;101248.53;;;6.28;45.69
71857;BME280;63344;46.980;28.882;2024-03-08T12:37:21;101280.19;;;6.26;45.96
71857;BME280;63344;46.980;28.882;2024-03-08T12:39:55;101287.19;;;6.29;45.71
71857;BME280;63344;46.980;28.882;2024-03-08T12:42:23;101273.41;;;6.02;45.55
71857;BME280;63344;46.980;28.882;2024-03-08T12:44:52;101262.16;;;5.82;46.00
71857;BME280;63344;46.980;28.882;2024-03-08T12:47:24;101281.41;;;5.91;46.41
71857;BME280;63344;46.980;28.882;2024-03-08T12:49:53;101252.31;;;6.02;46.37
71857;BME280;63344;46.980;28.882;2024-03-08T12:52:20;101267.97;;;6.19;46.41
71857;BME280;63344;46.980;28.882;2024-03-08T12:54:55;101203.22;;;5.87;45.94
71857;BME280;63344;46.980;28.882;2024-03-08T12:57:22;101259.22;;;6.15;45.75
71857;BME280;63344;46.980;28.882;2024-03-08T12:59:52;101240.69;;;6.20;45.66
71857;BME280;63344;46.980;28.882;2024-03-08T13:02:25;101211.78;;;6.12;45.43
71857;BME280;63344;46.980;28.882;2024-03-08T13:04:54;101246.75;;;6.31;45.00
71857;BME280;63344;46.980;28.882;2024-03-08T13:07:25;101226.66;;;6.18;45.19
71857;BME280;63344;46.980;28.882;2024-03-08T13:09:55;101243.13;;;6.37;44.92
71857;BME280;63344;46.980;28.882;2024-03-08T13:12:46;101258.09;;;6.38;45.16
71857;BME280;63344;46.980;28.882;2024-03-08T13:15:20;101219.41;;;6.37;45.31
71857;BME280;63344;46.980;28.882;2024-03-08T13:17:50;101226.22;;;6.55;45.11
71857;BME280;63344;46.980;28.882;2024-03-08T13:20:19;101254.28;;;6.61;44.63
71857;BME280;63344;46.980;28.882;2024-03-08T13:23:01;101253.81;;;6.28;44.79
71857;BME280;63344;46.980;28.882;2024-03-08T13:25:31;101254.97;;;6.01;45.53
71857;BME280;63344;46.980;28.882;2024-03-08T13:27:58;101232.19;;;5.90;46.02
71857;BME280;63344;46.980;28.882;2024-03-08T13:30:28;101221.69;;;5.87;45.94
71857;BME280;63344;46.980;28.882;2024-03-08T13:32:56;101227.09;;;5.72;46.17
71857;BME280;63344;46.980;28.882;2024-03-08T13:35:26;101229.78;;;5.64;46.60
71857;BME280;63344;46.980;28.882;2024-03-08T13:37:54;101213.97;;;5.67;46.97
71857;BME280;63344;46.980;28.882;2024-03-08T13:40:22;101225.19;;;5.89;46.90
71857;BME280;63344;46.980;28.882;2024-03-08T13:42:49;101213.56;;;6.09;46.24
71857;BME280;63344;46.980;28.882;2024-03-08T13:45:17;101197.81;;;6.03;45.61
71857;BME280;63344;46.980;28.882;2024-03-08T13:47:56;101246.00;;;6.17;45.87
71857;BME280;63344;46.980;28.882;2024-03-08T13:50:25;101229.44;;;6.06;45.79
71857;BME280;63344;46.980;28.882;2024-03-08T13:52:57;101244.34;;;6.07;45.96
71857;BME280;63344;46.980;28.882;2024-03-08T13:55:24;101209.13;;;6.14;45.58
71857;BME280;63344;46.980;28.882;2024-03-08T13:57:54;101229.38;;;6.10;45.61
71857;BME280;63344;46.980;28.882;2024-03-08T14:00:23;101245.25;;;6.07;45.94
71857;BME280;63344;46.980;28.882;2024-03-08T14:02:55;101219.91;;;5.86;45.59
71857;BME280;63344;46.980;28.882;2024-03-08T14:05:23;101200.00;;;5.56;46.13
71857;BME280;63344;46.980;28.882;2024-03-08T14:07:52;101227.31;;;5.41;46.93
71857;BME280;63344;46.980;28.882;2024-03-08T14:10:21;101237.84;;;5.47;47.32